Time;durP1;ratioP1;P1;durP2;ratioP2;P2;SDS_P1;SDS_P2;PMS_P1;PMS_P2;Temp;Humidity;BMP_temperature;BMP_pressure;BME280_temperature;BME280_humidity;BME280_pressure;Samples;Min_cycle;Max_cycle;Signal;HPM_P1;HPM_P2
2022/11/21 00:00:23;;;;;;;0.60;0.60;;;;;;;;;;5009743;28;20461;-82
2022/11/21 00:02:50;;;;;;;0.60;0.50;;;;;;;;;;5009837;28;20457;-79
2022/11/21 00:05:17;;;;;;;0.60;0.60;;;;;;;;;;5013592;28;21031;-81
2022/11/21 00:07:45;;;;;;;2.30;0.90;;;;;;;;;;5030146;28;20441;-79
2022/11/21 00:10:11;;;;;;;0.80;0.80;;;;;;;;;;5027706;28;20461;-79
2022/11/21 00:12:38;;;;;;;0.60;0.57;;;;;;;;;;5028862;28;20470;-79
2022/11/21 00:15:05;;;;;;;0.63;0.60;;;;;;;;;;5012977;28;20463;-81
2022/11/21 00:17:32;;;;;;;0.60;0.60;;;;;;;;;;5005032;28;20478;-78
2022/11/21 00:19:59;;;;;;;0.60;0.60;;;;;;;;;;5009745;28;20882;-76
2022/11/21 00:22:29;;;;;;;0.60;0.60;;;;;;;;;;5029846;28;20469;-77
2022/11/21 00:24:57;;;;;;;1.70;1.10;;;;;;;;;;5025249;28;20554;-78
2022/11/21 00:27:24;;;;;;;0.60;0.60;;;;;;;;;;4995572;28;20469;-76
2022/11/21 00:29:51;;;;;;;0.60;0.50;;;;;;;;;;5007143;28;20501;-79
2022/11/21 00:32:17;;;;;;;0.60;0.50;;;;;;;;;;5029670;28;20862;-78
2022/11/21 00:34:44;;;;;;;0.87;0.70;;;;;;;;;;5027258;28;20474;-78
2022/11/21 00:37:11;;;;;;;0.60;0.57;;;;;;;;;;5029395;28;20472;-78
2022/11/21 00:39:38;;;;;;;0.60;0.50;;;;;;;;;;5005051;28;20455;-79
2022/11/21 00:42:07;;;;;;;0.60;0.60;;;;;;;;;;5010426;28;20470;-80
2022/11/21 00:44:33;;;;;;;0.60;0.50;;;;;;;;;;5024970;28;20481;-81
2022/11/21 00:47:00;;;;;;;0.60;0.60;;;;;;;;;;5027670;28;20442;-82
2022/11/21 00:49:26;;;;;;;0.60;0.60;;;;;;;;;;5029458;28;20500;-79
2022/11/21 00:51:53;;;;;;;0.60;0.50;;;;;;;;;;5013762;28;20452;-80
2022/11/21 00:54:20;;;;;;;0.60;0.50;;;;;;;;;;5017671;28;20474;-83
2022/11/21 00:56:47;;;;;;;0.60;0.57;;;;;;;;;;5012541;28;20492;-80
2022/11/21 00:59:15;;;;;;;0.60;0.50;;;;;;;;;;5004837;28;20472;-81
2022/11/21 01:01:41;;;;;;;0.60;0.60;;;;;;;;;;5028641;28;20466;-82
2022/11/21 01:04:08;;;;;;;0.60;0.50;;;;;;;;;;5013317;28;20489;-83
2022/11/21 01:06:36;;;;;;;0.70;0.63;;;;;;;;;;5009072;28;20459;-80
2022/11/21 01:09:02;;;;;;;0.60;0.60;;;;;;;;;;4999630;28;20524;-78
2022/11/21 01:11:29;;;;;;;0.60;0.50;;;;;;;;;;5013381;28;20461;-77
2022/11/21 01:13:56;;;;;;;0.60;0.50;;;;;;;;;;5010145;28;20467;-80
2022/11/21 01:16:26;;;;;;;0.60;0.60;;;;;;;;;;5026197;28;20446;-82
2022/11/21 01:18:53;;;;;;;0.60;0.60;;;;;;;;;;5029002;28;20488;-80
2022/11/21 01:21:20;;;;;;;0.60;0.60;;;;;;;;;;4988372;28;20800;-80
2022/11/21 01:24:03;;;;;;;0.60;0.50;;;;;;;;;;5025837;28;20480;-82
2022/11/21 01:26:31;;;;;;;0.60;0.60;;;;;;;;;;5028340;28;20505;-79
2022/11/21 01:28:58;;;;;;;0.60;0.50;;;;;;;;;;5013291;28;20794;-79
2022/11/21 01:31:35;;;;;;;0.60;0.50;;;;;;;;;;5008022;28;20564;-81
2022/11/21 01:34:02;;;;;;;0.60;0.60;;;;;;;;;;5009898;28;20447;-80
2022/11/21 01:36:29;;;;;;;0.73;0.73;;;;;;;;;;5013547;28;20437;-80
2022/11/21 01:39:02;;;;;;;0.60;0.60;;;;;;;;;;5024614;28;21016;-80
2022/11/21 01:41:32;;;;;;;0.90;0.90;;;;;;;;;;5000540;28;20982;-80
2022/11/21 01:44:03;;;;;;;0.60;0.60;;;;;;;;;;5011237;28;20444;-79
2022/11/21 01:46:29;;;;;;;0.60;0.60;;;;;;;;;;5028102;28;20484;-77
2022/11/21 01:49:08;;;;;;;0.60;0.60;;;;;;;;;;5028568;28;20534;-79
2022/11/21 01:51:38;;;;;;;0.60;0.60;;;;;;;;;;4987656;28;20980;-79
2022/11/21 01:54:07;;;;;;;0.60;0.60;;;;;;;;;;5011615;28;20536;-79
2022/11/21 01:56:37;;;;;;;0.60;0.60;;;;;;;;;;5004058;28;20552;-79
2022/11/21 01:59:05;;;;;;;0.70;0.60;;;;;;;;;;5026782;28;20566;-80
2022/11/21 02:01:33;;;;;;;0.60;0.60;;;;;;;;;;5012542;28;20432;-80
2022/11/21 02:04:01;;;;;;;0.60;0.50;;;;;;;;;;5011368;28;20871;-80
2022/11/21 02:06:30;;;;;;;0.60;0.60;;;;;;;;;;5012736;28;20505;-79
2022/11/21 02:09:03;;;;;;;0.60;0.53;;;;;;;;;;5011069;28;20465;-79
2022/11/21 02:11:35;;;;;;;0.60;0.50;;;;;;;;;;5003759;28;21005;-81
2022/11/21 02:14:11;;;;;;;0.60;0.50;;;;;;;;;;5027562;28;21036;-80
2022/11/21 02:16:42;;;;;;;0.60;0.50;;;;;;;;;;5011800;28;20449;-79
2022/11/21 02:19:28;;;;;;;0.60;0.60;;;;;;;;;;5010499;28;20529;-79
2022/11/21 02:22:04;;;;;;;0.60;0.60;;;;;;;;;;5011870;28;20534;-79
2022/11/21 02:24:45;;;;;;;0.60;0.60;;;;;;;;;;5011330;28;20525;-79
2022/11/21 02:27:19;;;;;;;0.60;0.60;;;;;;;;;;5011887;28;20531;-79
2022/11/21 02:29:51;;;;;;;0.60;0.60;;;;;;;;;;5007110;28;20545;-78
2022/11/21 02:32:21;;;;;;;0.60;0.60;;;;;;;;;;5011098;28;20496;-78
2022/11/21 02:34:53;;;;;;;0.60;0.60;;;;;;;;;;5017954;28;20453;-80
2022/11/21 02:37:26;;;;;;;0.60;0.50;;;;;;;;;;5012364;28;20893;-80
2022/11/21 02:40:01;;;;;;;0.60;0.50;;;;;;;;;;5009297;28;20462;-78
2022/11/21 02:42:36;;;;;;;0.60;0.60;;;;;;;;;;5014948;28;20582;-77
2022/11/21 02:45:10;;;;;;;0.80;0.80;;;;;;;;;;4977126;28;20984;-77
2022/11/21 02:47:39;;;;;;;0.60;0.60;;;;;;;;;;5031683;28;20480;-79
2022/11/21 02:50:12;;;;;;;0.60;0.60;;;;;;;;;;5031809;28;20523;-77
2022/11/21 02:52:58;;;;;;;0.60;0.60;;;;;;;;;;5025508;28;20441;-77
2022/11/21 02:55:30;;;;;;;0.60;0.60;;;;;;;;;;5030600;28;20454;-78
2022/11/21 02:58:01;;;;;;;0.60;0.50;;;;;;;;;;5023229;28;20528;-79
2022/11/21 03:00:39;;;;;;;0.60;0.60;;;;;;;;;;5009409;28;20979;-78
2022/11/21 03:03:06;;;;;;;0.67;0.67;;;;;;;;;;5031528;28;20853;-77
2022/11/21 03:05:34;;;;;;;0.60;0.60;;;;;;;;;;5006322;28;20492;-79
2022/11/21 03:08:02;;;;;;;0.60;0.60;;;;;;;;;;5006807;28;20438;-76
2022/11/21 03:10:28;;;;;;;0.70;0.70;;;;;;;;;;5031229;28;20478;-77
2022/11/21 03:12:59;;;;;;;0.60;0.60;;;;;;;;;;5006512;28;21035;-77
2022/11/21 03:15:29;;;;;;;0.60;0.60;;;;;;;;;;5014977;28;20442;-76
2022/11/21 03:17:56;;;;;;;0.93;0.90;;;;;;;;;;5015784;28;20556;-77
2022/11/21 03:20:35;;;;;;;0.60;0.60;;;;;;;;;;5027582;28;20463;-77
2022/11/21 03:23:04;;;;;;;0.60;0.60;;;;;;;;;;5012390;28;20795;-76
2022/11/21 03:25:31;;;;;;;0.60;0.60;;;;;;;;;;5029690;28;20501;-75
2022/11/21 03:27:57;;;;;;;0.60;0.50;;;;;;;;;;5030750;28;20730;-77
2022/11/21 03:30:28;;;;;;;0.60;0.60;;;;;;;;;;5028784;28;20535;-76
2022/11/21 03:32:56;;;;;;;0.60;0.50;;;;;;;;;;5027048;28;20470;-77
2022/11/21 03:35:23;;;;;;;0.60;0.50;;;;;;;;;;5009995;28;20463;-76
2022/11/21 03:37:50;;;;;;;0.60;0.50;;;;;;;;;;5026572;28;20569;-76
2022/11/21 03:40:16;;;;;;;0.60;0.60;;;;;;;;;;5013812;28;20483;-76
2022/11/21 03:42:43;;;;;;;0.70;0.70;;;;;;;;;;5001958;28;20557;-76
2022/11/21 03:45:11;;;;;;;0.60;0.60;;;;;;;;;;5010612;28;20458;-78
2022/11/21 03:47:51;;;;;;;0.60;0.60;;;;;;;;;;5030092;28;20490;-77
2022/11/21 03:50:26;;;;;;;0.60;0.60;;;;;;;;;;4995677;28;20430;-76
2022/11/21 03:52:53;;;;;;;0.70;0.70;;;;;;;;;;5026756;28;20439;-77
2022/11/21 03:55:20;;;;;;;0.63;0.63;;;;;;;;;;5011424;28;20508;-77
2022/11/21 03:57:50;;;;;;;0.60;0.60;;;;;;;;;;5012458;28;20816;-76
2022/11/21 04:00:31;;;;;;;0.60;0.53;;;;;;;;;;5013267;28;20941;-76
2022/11/21 04:03:01;;;;;;;0.60;0.50;;;;;;;;;;5029480;28;20592;-78
2022/11/21 04:05:43;;;;;;;0.60;0.50;;;;;;;;;;5015007;28;20482;-76
2022/11/21 04:08:14;;;;;;;0.60;0.60;;;;;;;;;;5005737;28;20492;-76
2022/11/21 04:10:48;;;;;;;0.70;0.60;;;;;;;;;;5009938;28;20489;-77
2022/11/21 04:13:20;;;;;;;0.60;0.57;;;;;;;;;;5028672;28;20542;-76
2022/11/21 04:15:49;;;;;;;0.60;0.60;;;;;;;;;;5014455;28;20558;-78
2022/11/21 04:18:20;;;;;;;0.60;0.60;;;;;;;;;;4998812;28;20482;-77
2022/11/21 04:20:58;;;;;;;0.60;0.60;;;;;;;;;;5013099;28;20842;-78
2022/11/21 04:23:30;;;;;;;0.60;0.60;;;;;;;;;;5008962;28;20460;-76
2022/11/21 04:26:17;;;;;;;0.60;0.50;;;;;;;;;;5026042;28;20560;-76
2022/11/21 04:28:45;;;;;;;0.60;0.50;;;;;;;;;;5029543;28;20504;-76
2022/11/21 04:31:15;;;;;;;0.60;0.60;;;;;;;;;;5027102;28;20434;-75
2022/11/21 04:33:54;;;;;;;0.60;0.60;;;;;;;;;;5009491;28;21044;-76
2022/11/21 04:36:27;;;;;;;0.60;0.60;;;;;;;;;;4993509;28;20437;-76
2022/11/21 04:39:00;;;;;;;0.60;0.60;;;;;;;;;;5007113;28;20477;-75
2022/11/21 04:41:29;;;;;;;0.70;0.70;;;;;;;;;;5012200;28;20460;-77
2022/11/21 04:43:59;;;;;;;0.60;0.50;;;;;;;;;;5010620;28;20460;-77
2022/11/21 04:46:26;;;;;;;0.60;0.60;;;;;;;;;;5001517;28;20430;-76
2022/11/21 04:48:54;;;;;;;0.60;0.60;;;;;;;;;;5005138;28;21023;-76
2022/11/21 04:51:21;;;;;;;0.60;0.60;;;;;;;;;;5025008;28;20805;-76
2022/11/21 04:53:52;;;;;;;0.60;0.60;;;;;;;;;;5024267;28;20486;-77
2022/11/21 04:56:18;;;;;;;0.60;0.60;;;;;;;;;;5028947;28;20834;-76
2022/11/21 04:58:55;;;;;;;0.60;0.60;;;;;;;;;;5013307;28;20465;-76
2022/11/21 05:01:27;;;;;;;0.60;0.60;;;;;;;;;;5011289;28;20491;-77
2022/11/21 05:03:57;;;;;;;0.60;0.60;;;;;;;;;;5013578;28;20438;-76
2022/11/21 05:06:24;;;;;;;0.60;0.60;;;;;;;;;;5013701;28;20438;-76
2022/11/21 05:09:01;;;;;;;1.53;1.43;;;;;;;;;;5028389;28;20441;-77
2022/11/21 05:14:16;;;;;;;0.60;0.60;;;;;;;;;;5010552;28;20802;-77
2022/11/21 05:16:44;;;;;;;0.60;0.60;;;;;;;;;;5028861;28;20453;-75
2022/11/21 05:19:24;;;;;;;0.60;0.50;;;;;;;;;;5012161;28;20501;-76
2022/11/21 05:21:52;;;;;;;0.60;0.60;;;;;;;;;;5020887;28;20454;-76
2022/11/21 05:24:20;;;;;;;0.60;0.50;;;;;;;;;;5021929;28;20454;-77
2022/11/21 05:26:47;;;;;;;0.60;0.60;;;;;;;;;;5026528;28;20479;-76
2022/11/21 05:29:32;;;;;;;0.60;0.50;;;;;;;;;;5025366;28;20447;-76
2022/11/21 05:32:01;;;;;;;0.60;0.60;;;;;;;;;;5008185;28;20479;-76
2022/11/21 05:34:30;;;;;;;0.60;0.50;;;;;;;;;;5013021;28;20469;-78
2022/11/21 05:36:59;;;;;;;0.60;0.57;;;;;;;;;;5012800;28;20438;-78
2022/11/21 05:39:26;;;;;;;0.60;0.50;;;;;;;;;;5028530;28;20840;-76
2022/11/21 05:41:52;;;;;;;0.60;0.50;;;;;;;;;;5028168;28;20825;-77
2022/11/21 05:44:27;;;;;;;0.60;0.60;;;;;;;;;;5001904;28;20456;-76
2022/11/21 05:46:54;;;;;;;0.60;0.50;;;;;;;;;;5013329;28;20913;-75
2022/11/21 05:49:34;;;;;;;0.70;0.70;;;;;;;;;;5028594;28;20454;-77
2022/11/21 05:52:01;;;;;;;0.60;0.60;;;;;;;;;;5027697;28;20858;-76
2022/11/21 05:54:27;;;;;;;0.60;0.60;;;;;;;;;;5028313;28;20450;-76
2022/11/21 05:56:55;;;;;;;0.60;0.60;;;;;;;;;;5027853;28;20489;-75
2022/11/21 05:59:34;;;;;;;0.60;0.60;;;;;;;;;;5024726;28;20467;-77
2022/11/21 06:04:48;;;;;;;0.60;0.60;;;;;;;;;;5028488;28;20437;-76
2022/11/21 06:07:15;;;;;;;1.40;1.30;;;;;;;;;;5003366;28;20433;-76
2022/11/21 06:09:57;;;;;;;1.27;1.17;;;;;;;;;;5027849;28;20941;-78
2022/11/21 06:12:23;;;;;;;0.60;0.60;;;;;;;;;;5006285;28;20557;-76
2022/11/21 06:14:51;;;;;;;0.60;0.50;;;;;;;;;;5016047;28;20492;-76
2022/11/21 06:17:18;;;;;;;0.87;0.87;;;;;;;;;;5014962;28;20448;-75
2022/11/21 06:19:44;;;;;;;0.60;0.60;;;;;;;;;;5032131;28;20520;-74
2022/11/21 06:22:16;;;;;;;0.60;0.60;;;;;;;;;;5032133;28;20984;-74
2022/11/21 06:24:43;;;;;;;1.47;1.37;;;;;;;;;;5015952;28;20445;-74
2022/11/21 06:27:09;;;;;;;1.57;1.03;;;;;;;;;;5030243;28;20472;-74
2022/11/21 06:29:38;;;;;;;1.47;1.10;;;;;;;;;;5027821;28;20496;-75
2022/11/21 06:32:20;;;;;;;0.60;0.60;;;;;;;;;;5027218;28;20508;-76
2022/11/21 06:34:47;;;;;;;0.60;0.60;;;;;;;;;;5014908;28;20477;-74
2022/11/21 06:37:16;;;;;;;5.63;1.47;;;;;;;;;;5008273;28;20449;-76
2022/11/21 06:39:43;;;;;;;0.60;0.57;;;;;;;;;;5003458;28;20486;-76
2022/11/21 06:42:10;;;;;;;0.77;0.77;;;;;;;;;;5032063;28;20479;-75
2022/11/21 06:44:39;;;;;;;0.60;0.60;;;;;;;;;;4996646;28;20446;-75
2022/11/21 06:47:05;;;;;;;0.60;0.50;;;;;;;;;;5018317;28;20548;-75
2022/11/21 06:49:32;;;;;;;0.83;0.83;;;;;;;;;;5029460;28;20507;-77
2022/11/21 06:52:01;;;;;;;0.60;0.50;;;;;;;;;;5014671;28;21052;-75
2022/11/21 06:54:29;;;;;;;0.60;0.60;;;;;;;;;;5028347;28;20819;-76
2022/11/21 06:56:57;;;;;;;0.60;0.57;;;;;;;;;;5030872;28;20469;-76
2022/11/21 06:59:30;;;;;;;0.63;0.60;;;;;;;;;;5027427;28;20485;-76
2022/11/21 07:01:57;;;;;;;0.60;0.50;;;;;;;;;;5004478;28;20434;-76
2022/11/21 07:04:23;;;;;;;0.60;0.60;;;;;;;;;;5031551;28;20500;-76
2022/11/21 07:06:54;;;;;;;0.60;0.60;;;;;;;;;;5028368;28;20562;-75
2022/11/21 07:09:20;;;;;;;0.60;0.60;;;;;;;;;;5010071;28;20437;-77
2022/11/21 07:14:49;;;;;;;0.60;0.60;;;;;;;;;;5031387;28;20819;-75
2022/11/21 07:17:16;;;;;;;0.60;0.57;;;;;;;;;;5005895;28;20454;-76
2022/11/21 07:19:43;;;;;;;0.60;0.60;;;;;;;;;;4988238;28;20473;-76
2022/11/21 07:22:10;;;;;;;0.60;0.60;;;;;;;;;;5015537;28;20480;-76
2022/11/21 07:24:37;;;;;;;0.60;0.60;;;;;;;;;;5011794;28;20540;-77
2022/11/21 07:27:05;;;;;;;1.03;0.93;;;;;;;;;;4991643;28;20467;-76
2022/11/21 07:29:32;;;;;;;0.60;0.60;;;;;;;;;;5011908;28;20434;-76
2022/11/21 07:31:59;;;;;;;1.10;0.97;;;;;;;;;;5008931;28;20966;-76
2022/11/21 07:34:26;;;;;;;0.60;0.60;;;;;;;;;;5012862;28;20499;-76
2022/11/21 07:36:53;;;;;;;0.60;0.60;;;;;;;;;;5014947;28;20954;-75
2022/11/21 07:39:25;;;;;;;0.70;0.60;;;;;;;;;;5014041;28;20490;-75
2022/11/21 07:41:55;;;;;;;0.60;0.60;;;;;;;;;;5028535;28;20572;-76
2022/11/21 07:44:32;;;;;;;0.60;0.50;;;;;;;;;;5030437;28;20466;-75
2022/11/21 07:46:59;;;;;;;0.60;0.50;;;;;;;;;;5029966;28;20481;-76
2022/11/21 07:49:32;;;;;;;0.67;0.67;;;;;;;;;;5028687;28;20979;-75
2022/11/21 07:51:59;;;;;;;0.60;0.60;;;;;;;;;;4996393;28;20842;-75
2022/11/21 07:54:26;;;;;;;0.87;0.87;;;;;;;;;;5008707;28;20454;-76
2022/11/21 07:56:53;;;;;;;0.63;0.60;;;;;;;;;;5029831;28;20465;-75
2022/11/21 07:59:20;;;;;;;0.60;0.50;;;;;;;;;;4992554;28;20483;-75
2022/11/21 08:01:51;;;;;;;0.60;0.60;;;;;;;;;;5008193;28;20784;-76
2022/11/21 08:04:19;;;;;;;0.67;0.67;;;;;;;;;;5026288;28;20455;-75
2022/11/21 08:06:46;;;;;;;0.60;0.60;;;;;;;;;;5028665;28;20431;-76
2022/11/21 08:09:12;;;;;;;0.60;0.60;;;;;;;;;;4986646;28;20456;-76
2022/11/21 08:11:39;;;;;;;0.60;0.50;;;;;;;;;;5010553;28;21025;-77
2022/11/21 08:14:11;;;;;;;0.60;0.50;;;;;;;;;;5028525;28;20844;-75
2022/11/21 08:16:43;;;;;;;0.60;0.60;;;;;;;;;;5029342;28;20485;-75
2022/11/21 08:19:24;;;;;;;0.60;0.60;;;;;;;;;;5013412;28;20478;-76
2022/11/21 08:21:51;;;;;;;0.60;0.60;;;;;;;;;;5030284;28;20536;-76
2022/11/21 08:24:28;;;;;;;0.60;0.60;;;;;;;;;;5010329;28;20530;-76
2022/11/21 08:26:57;;;;;;;0.60;0.60;;;;;;;;;;5026013;28;20517;-76
2022/11/21 08:29:30;;;;;;;0.80;0.80;;;;;;;;;;5014372;28;20431;-76
2022/11/21 08:31:58;;;;;;;0.60;0.60;;;;;;;;;;5012389;28;20541;-75
2022/11/21 08:34:29;;;;;;;0.60;0.60;;;;;;;;;;5029332;28;20553;-75
2022/11/21 08:36:58;;;;;;;0.60;0.60;;;;;;;;;;5029564;28;20465;-76
2022/11/21 08:39:26;;;;;;;1.07;0.97;;;;;;;;;;5028797;28;20482;-76
2022/11/21 08:42:03;;;;;;;1.73;1.63;;;;;;;;;;4993107;28;20474;-76
2022/11/21 08:44:31;;;;;;;0.60;0.60;;;;;;;;;;5010514;28;20447;-74
2022/11/21 08:46:57;;;;;;;0.67;0.67;;;;;;;;;;4993275;28;20901;-75
2022/11/21 08:49:25;;;;;;;0.60;0.60;;;;;;;;;;4994917;28;20834;-76
2022/11/21 08:51:53;;;;;;;0.60;0.60;;;;;;;;;;5029096;28;20469;-75
2022/11/21 08:54:45;;;;;;;2.80;1.73;;;;;;;;;;5024815;28;20771;-76
2022/11/21 08:57:12;;;;;;;0.60;0.53;;;;;;;;;;5028697;28;20470;-74
2022/11/21 08:59:41;;;;;;;0.60;0.60;;;;;;;;;;5013764;28;20570;-75
2022/11/21 09:02:09;;;;;;;0.60;0.60;;;;;;;;;;5012072;28;20759;-74
2022/11/21 09:04:36;;;;;;;0.60;0.60;;;;;;;;;;5029404;28;20439;-74
2022/11/21 09:20:26;;;;;;;0.70;0.70;;;;;;;;;;5028466;28;20472;-75
2022/11/21 09:22:55;;;;;;;0.60;0.60;;;;;;;;;;5008156;28;20452;-76
2022/11/21 09:25:22;;;;;;;0.60;0.60;;;;;;;;;;5028810;28;20477;-75
2022/11/21 09:27:51;;;;;;;0.60;0.60;;;;;;;;;;5028786;28;20532;-73
2022/11/21 09:30:24;;;;;;;0.70;0.70;;;;;;;;;;5011661;28;20437;-73
2022/11/21 09:32:51;;;;;;;0.60;0.60;;;;;;;;;;5028251;28;20456;-74
2022/11/21 09:35:21;;;;;;;0.60;0.60;;;;;;;;;;5011261;28;20456;-76
2022/11/21 09:37:50;;;;;;;0.70;0.70;;;;;;;;;;5000831;28;21235;-75
2022/11/21 09:40:17;;;;;;;0.60;0.60;;;;;;;;;;5012283;28;20470;-75
2022/11/21 09:42:56;;;;;;;0.70;0.70;;;;;;;;;;5001625;28;20455;-75
2022/11/21 09:45:25;;;;;;;0.60;0.60;;;;;;;;;;5028160;28;20906;-75
2022/11/21 09:47:54;;;;;;;0.60;0.60;;;;;;;;;;5009999;28;20502;-75
2022/11/21 09:50:27;;;;;;;0.60;0.60;;;;;;;;;;5028597;28;20523;-75
2022/11/21 09:53:01;;;;;;;0.70;0.70;;;;;;;;;;4999386;28;20441;-75
2022/11/21 09:55:31;;;;;;;0.70;0.70;;;;;;;;;;5028425;28;20439;-73
2022/11/21 09:58:03;;;;;;;0.80;0.80;;;;;;;;;;4983873;28;20470;-73
2022/11/21 10:00:31;;;;;;;1.77;1.20;;;;;;;;;;5001827;28;20616;-75
2022/11/21 10:02:58;;;;;;;0.70;0.70;;;;;;;;;;5009763;28;20979;-75
2022/11/21 10:05:32;;;;;;;0.60;0.60;;;;;;;;;;5012966;28;20446;-75
2022/11/21 10:08:06;;;;;;;0.60;0.60;;;;;;;;;;5011882;28;20549;-75
2022/11/21 10:10:42;;;;;;;0.70;0.70;;;;;;;;;;5027645;28;20499;-75
2022/11/21 10:13:15;;;;;;;0.70;0.70;;;;;;;;;;5004791;28;20457;-75
2022/11/21 10:15:49;;;;;;;0.60;0.60;;;;;;;;;;5009740;28;20472;-76
2022/11/21 10:18:27;;;;;;;0.70;0.70;;;;;;;;;;4997823;28;20495;-75
2022/11/21 10:20:56;;;;;;;0.60;0.60;;;;;;;;;;5028094;28;20496;-74
2022/11/21 10:23:34;;;;;;;1.00;1.00;;;;;;;;;;5012144;28;20484;-75
2022/11/21 10:33:50;;;;;;;0.80;0.80;;;;;;;;;;5012457;28;20436;-75
2022/11/21 11:27:28;;;;;;;0.80;0.80;;;;;;;;;;5014487;28;20429;-74
2022/11/21 11:29:55;;;;;;;0.70;0.70;;;;;;;;;;5013698;28;20484;-75
2022/11/21 11:32:23;;;;;;;0.73;0.70;;;;;;;;;;5000619;28;20516;-74
2022/11/21 11:34:56;;;;;;;0.70;0.70;;;;;;;;;;5030018;28;20453;-74
2022/11/21 11:37:28;;;;;;;0.70;0.70;;;;;;;;;;5010267;28;20470;-76
2022/11/21 11:40:03;;;;;;;0.70;0.70;;;;;;;;;;5005311;28;21078;-75
2022/11/21 11:48:45;;;;;;;0.70;0.70;;;;;;;;;;5014549;28;20554;-74
2022/11/21 11:51:36;;;;;;;0.70;0.70;;;;;;;;;;4998345;28;20918;-76
2022/11/21 11:54:06;;;;;;;0.70;0.70;;;;;;;;;;5030474;28;20500;-75
2022/11/21 11:56:37;;;;;;;0.70;0.63;;;;;;;;;;5013844;28;20451;-74
2022/11/21 11:59:06;;;;;;;0.70;0.70;;;;;;;;;;5013690;28;20460;-75
2022/11/21 12:01:36;;;;;;;0.70;0.70;;;;;;;;;;5029074;28;20485;-73
2022/11/21 12:04:05;;;;;;;0.70;0.60;;;;;;;;;;5009476;28;20449;-72
2022/11/21 12:06:33;;;;;;;0.70;0.60;;;;;;;;;;5014813;28;20461;-72
2022/11/21 12:09:23;;;;;;;0.73;0.73;;;;;;;;;;5009955;28;20974;-74
2022/11/21 12:12:06;;;;;;;0.70;0.70;;;;;;;;;;5014022;28;20438;-74
2022/11/21 12:17:32;;;;;;;0.70;0.70;;;;;;;;;;5029610;28;20452;-75
2022/11/21 12:20:02;;;;;;;0.70;0.70;;;;;;;;;;5026484;28;20500;-76
2022/11/21 12:22:29;;;;;;;0.70;0.70;;;;;;;;;;5011808;28;20892;-74
2022/11/21 12:24:56;;;;;;;0.70;0.60;;;;;;;;;;5001188;28;20519;-74
2022/11/21 12:27:27;;;;;;;0.70;0.60;;;;;;;;;;4991069;28;20548;-74
2022/11/21 12:30:15;;;;;;;0.70;0.70;;;;;;;;;;5025269;28;20541;-75
2022/11/21 12:32:57;;;;;;;0.73;0.73;;;;;;;;;;5019570;28;20866;-76
2022/11/21 12:35:42;;;;;;;0.70;0.60;;;;;;;;;;5000431;28;20460;-76
2022/11/21 12:38:16;;;;;;;0.80;0.80;;;;;;;;;;5012957;28;20945;-74
2022/11/21 12:40:49;;;;;;;0.70;0.70;;;;;;;;;;5009086;28;20535;-74
2022/11/21 12:43:24;;;;;;;0.70;0.60;;;;;;;;;;5029458;28;20469;-74
2022/11/21 12:45:52;;;;;;;0.97;0.93;;;;;;;;;;5022825;28;20447;-73
2022/11/21 12:54:34;;;;;;;0.70;0.60;;;;;;;;;;5011099;28;20866;-72
2022/11/21 12:57:07;;;;;;;0.70;0.60;;;;;;;;;;5028629;28;20457;-74
2022/11/21 12:59:39;;;;;;;0.70;0.70;;;;;;;;;;5025331;28;20472;-74
2022/11/21 13:02:08;;;;;;;0.70;0.63;;;;;;;;;;4992987;28;20524;-75
2022/11/21 13:04:37;;;;;;;1.00;0.90;;;;;;;;;;4995277;28;20465;-74
2022/11/21 13:07:05;;;;;;;0.70;0.67;;;;;;;;;;5027960;28;21006;-76
2022/11/21 13:09:36;;;;;;;0.70;0.60;;;;;;;;;;4994996;28;20447;-76
2022/11/21 13:12:06;;;;;;;0.70;0.60;;;;;;;;;;5025414;28;20425;-75
2022/11/21 13:14:43;;;;;;;0.70;0.60;;;;;;;;;;5026483;28;20521;-77
2022/11/21 13:17:14;;;;;;;1.20;1.10;;;;;;;;;;5013573;28;20446;-75
2022/11/21 13:19:46;;;;;;;0.70;0.63;;;;;;;;;;5023587;28;20465;-76
2022/11/21 13:22:32;;;;;;;0.80;0.80;;;;;;;;;;5012391;28;20827;-75
2022/11/21 13:24:59;;;;;;;0.70;0.70;;;;;;;;;;5012370;28;20965;-76
2022/11/21 13:27:31;;;;;;;0.70;0.70;;;;;;;;;;5028555;28;20459;-76
2022/11/21 13:30:22;;;;;;;1.37;1.27;;;;;;;;;;5011593;28;20432;-75
2022/11/21 13:32:49;;;;;;;0.70;0.60;;;;;;;;;;5025524;28;20782;-76
2022/11/21 13:35:35;;;;;;;0.70;0.67;;;;;;;;;;5011919;28;20499;-76
2022/11/21 13:38:05;;;;;;;0.70;0.70;;;;;;;;;;5026382;28;20437;-75
2022/11/21 13:40:36;;;;;;;0.93;0.90;;;;;;;;;;5012289;28;20475;-74
2022/11/21 13:43:13;;;;;;;0.70;0.70;;;;;;;;;;5009494;28;21068;-75
2022/11/21 13:46:01;;;;;;;0.70;0.60;;;;;;;;;;4990145;28;20464;-75
2022/11/21 13:48:49;;;;;;;0.70;0.70;;;;;;;;;;5026576;28;20545;-75
2022/11/21 13:51:32;;;;;;;0.70;0.60;;;;;;;;;;5022163;28;20446;-75
2022/11/21 13:54:08;;;;;;;0.70;0.60;;;;;;;;;;5027347;28;20548;-76
2022/11/21 13:56:40;;;;;;;0.70;0.70;;;;;;;;;;5010567;28;20535;-75
2022/11/21 13:59:17;;;;;;;0.70;0.70;;;;;;;;;;4989017;28;20473;-75
2022/11/21 14:01:51;;;;;;;0.80;0.80;;;;;;;;;;5022356;28;21029;-74
2022/11/21 14:04:33;;;;;;;0.70;0.70;;;;;;;;;;5000622;28;20437;-74
2022/11/21 14:07:15;;;;;;;0.70;0.60;;;;;;;;;;5009510;28;20460;-74
2022/11/21 14:09:47;;;;;;;0.70;0.60;;;;;;;;;;5012671;28;20475;-74
2022/11/21 14:12:19;;;;;;;0.70;0.70;;;;;;;;;;5025824;28;20445;-74
2022/11/21 14:14:50;;;;;;;0.80;0.70;;;;;;;;;;5027283;28;20523;-73
2022/11/21 14:17:28;;;;;;;0.77;0.73;;;;;;;;;;5011205;28;20494;-73
2022/11/21 14:19:57;;;;;;;0.70;0.60;;;;;;;;;;5007678;28;20433;-75
2022/11/21 14:22:26;;;;;;;0.70;0.60;;;;;;;;;;5012446;28;20534;-74
2022/11/21 14:25:05;;;;;;;0.70;0.70;;;;;;;;;;5027067;28;20803;-73
2022/11/21 14:27:34;;;;;;;0.70;0.60;;;;;;;;;;5003483;28;20947;-74
2022/11/21 14:30:24;;;;;;;0.70;0.70;;;;;;;;;;5001693;28;20468;-74
2022/11/21 14:32:50;;;;;;;0.70;0.70;;;;;;;;;;4996854;28;20806;-73
2022/11/21 14:35:21;;;;;;;0.70;0.60;;;;;;;;;;5006752;28;20470;-74
2022/11/21 14:37:49;;;;;;;0.70;0.60;;;;;;;;;;5031985;28;20516;-73
2022/11/21 14:40:20;;;;;;;0.70;0.60;;;;;;;;;;5016021;28;20454;-73
2022/11/21 14:42:48;;;;;;;0.70;0.60;;;;;;;;;;5016210;28;20471;-74
2022/11/21 14:45:18;;;;;;;0.70;0.60;;;;;;;;;;5031138;28;20479;-73
2022/11/21 14:47:47;;;;;;;0.70;0.70;;;;;;;;;;5015530;28;20544;-73
2022/11/21 14:50:21;;;;;;;0.73;0.73;;;;;;;;;;5015974;28;20456;-74
2022/11/21 14:52:55;;;;;;;0.80;0.70;;;;;;;;;;4996701;28;20479;-73
2022/11/21 14:55:26;;;;;;;0.70;0.60;;;;;;;;;;5015866;28;20562;-74
2022/11/21 14:57:58;;;;;;;0.70;0.60;;;;;;;;;;5003199;28;20432;-73
2022/11/21 15:00:28;;;;;;;0.70;0.70;;;;;;;;;;5015066;28;20432;-74
2022/11/21 15:03:17;;;;;;;0.70;0.60;;;;;;;;;;5013889;28;20436;-74
2022/11/21 15:05:44;;;;;;;0.70;0.70;;;;;;;;;;5012893;28;20476;-74
2022/11/21 15:08:31;;;;;;;0.70;0.60;;;;;;;;;;5030592;28;20443;-74
2022/11/21 15:11:22;;;;;;;4.40;2.13;;;;;;;;;;5002339;28;20448;-74
2022/11/21 15:13:52;;;;;;;0.70;0.70;;;;;;;;;;5027777;28;20466;-74
2022/11/21 15:16:40;;;;;;;0.70;0.70;;;;;;;;;;5012924;28;20448;-74
2022/11/21 15:19:07;;;;;;;0.70;0.60;;;;;;;;;;5030623;28;20907;-74
2022/11/21 15:21:36;;;;;;;2.03;1.83;;;;;;;;;;5002082;28;20503;-75
2022/11/21 15:24:14;;;;;;;0.70;0.70;;;;;;;;;;5013182;28;20511;-73
2022/11/21 15:26:43;;;;;;;0.77;0.73;;;;;;;;;;5027740;28;20972;-74
2022/11/21 15:29:17;;;;;;;0.70;0.70;;;;;;;;;;5029398;28;20455;-73
2022/11/21 15:31:44;;;;;;;0.70;0.70;;;;;;;;;;5012292;28;20447;-73
2022/11/21 15:34:25;;;;;;;0.70;0.70;;;;;;;;;;5011924;28;20946;-74
2022/11/21 15:37:03;;;;;;;1.67;1.07;;;;;;;;;;5009270;28;20427;-71
2022/11/21 15:39:34;;;;;;;0.70;0.60;;;;;;;;;;5014738;28;20486;-74
2022/11/21 15:42:20;;;;;;;0.70;0.70;;;;;;;;;;5027493;28;20466;-74
2022/11/21 15:44:58;;;;;;;0.70;0.60;;;;;;;;;;5010748;28;20554;-74
2022/11/21 15:47:25;;;;;;;0.70;0.70;;;;;;;;;;5002581;28;20487;-73
2022/11/21 15:49:53;;;;;;;0.70;0.70;;;;;;;;;;5013513;28;20535;-75
2022/11/21 15:52:23;;;;;;;0.70;0.60;;;;;;;;;;5030933;28;20978;-73
2022/11/21 15:54:50;;;;;;;0.80;0.80;;;;;;;;;;5030561;28;20446;-75
2022/11/21 15:57:22;;;;;;;2.70;2.40;;;;;;;;;;5013859;28;20461;-73
2022/11/21 15:59:49;;;;;;;0.70;0.70;;;;;;;;;;5030502;28;20577;-74
2022/11/21 16:02:17;;;;;;;1.00;1.00;;;;;;;;;;5008722;28;20897;-73
2022/11/21 16:04:45;;;;;;;0.70;0.60;;;;;;;;;;5012609;28;20550;-74
2022/11/21 16:07:13;;;;;;;0.70;0.60;;;;;;;;;;5013753;28;20447;-72
2022/11/21 16:09:45;;;;;;;0.70;0.70;;;;;;;;;;5022306;28;20998;-73
2022/11/21 16:12:11;;;;;;;1.10;1.00;;;;;;;;;;5012896;28;20496;-74
2022/11/21 16:14:39;;;;;;;0.70;0.70;;;;;;;;;;5029532;28;20556;-73
2022/11/21 16:17:10;;;;;;;1.33;1.23;;;;;;;;;;5013198;28;20448;-74
2022/11/21 16:19:42;;;;;;;0.67;0.60;;;;;;;;;;5007745;28;20452;-72
2022/11/21 16:22:09;;;;;;;0.80;0.80;;;;;;;;;;5012893;28;21002;-72
2022/11/21 16:24:35;;;;;;;0.70;0.60;;;;;;;;;;5016023;28;20446;-72
2022/11/21 16:27:02;;;;;;;0.70;0.60;;;;;;;;;;5029714;28;20440;-73
2022/11/21 16:29:29;;;;;;;0.70;0.70;;;;;;;;;;5011424;28;20517;-73
2022/11/21 16:31:57;;;;;;;0.70;0.60;;;;;;;;;;5010705;28;20533;-73
2022/11/21 16:34:25;;;;;;;3.20;1.33;;;;;;;;;;5014386;28;20799;-73
2022/11/21 16:36:53;;;;;;;0.70;0.60;;;;;;;;;;4988400;28;20529;-74
2022/11/21 16:39:21;;;;;;;0.70;0.60;;;;;;;;;;4978694;28;20462;-73
2022/11/21 16:41:48;;;;;;;0.70;0.67;;;;;;;;;;5029261;28;20470;-73